sensor_id;sensor_type;location;lat;lon;timestamp;pressure;altitude;pressure_sealevel;temperature;humidity
72038;BME280;59900;50.788;12.904;2022-08-16T00:01:11;96817.88;;;18.74;79.14
72038;BME280;59900;50.788;12.904;2022-08-16T00:03:37;96817.38;;;18.72;79.36
72038;BME280;59900;50.788;12.904;2022-08-16T00:06:02;96814.44;;;18.69;79.14
72038;BME280;59900;50.788;12.904;2022-08-16T00:08:28;96818.66;;;18.65;79.36
72038;BME280;59900;50.788;12.904;2022-08-16T00:10:53;96824.78;;;18.65;79.49
72038;BME280;59900;50.788;12.904;2022-08-16T00:13:18;96823.72;;;18.61;79.17
72038;BME280;59900;50.788;12.904;2022-08-16T00:15:47;96827.47;;;18.60;79.85
72038;BME280;59900;50.788;12.904;2022-08-16T00:18:15;96829.56;;;18.58;79.90
72038;BME280;59900;50.788;12.904;2022-08-16T00:20:41;96833.84;;;18.54;79.81
72038;BME280;59900;50.788;12.904;2022-08-16T00:23:07;96831.94;;;18.50;80.03
72038;BME280;59900;50.788;12.904;2022-08-16T00:25:33;96829.53;;;18.48;80.21
72038;BME280;59900;50.788;12.904;2022-08-16T00:27:58;96830.59;;;18.47;80.09
72038;BME280;59900;50.788;12.904;2022-08-16T00:30:24;96825.03;;;18.49;80.14
72038;BME280;59900;50.788;12.904;2022-08-16T00:32:52;96834.34;;;18.51;80.49
72038;BME280;59900;50.788;12.904;2022-08-16T00:35:21;96834.06;;;18.53;80.07
72038;BME280;59900;50.788;12.904;2022-08-16T00:37:47;96835.69;;;18.54;80.04
72038;BME280;59900;50.788;12.904;2022-08-16T00:40:20;96839.97;;;18.60;80.11
72038;BME280;59900;50.788;12.904;2022-08-16T00:42:46;96841.81;;;18.64;79.61
72038;BME280;59900;50.788;12.904;2022-08-16T00:48:32;96833.06;;;18.64;79.31
72038;BME280;59900;50.788;12.904;2022-08-16T00:50:59;96843.72;;;18.69;79.40
72038;BME280;59900;50.788;12.904;2022-08-16T00:53:24;96844.50;;;18.69;79.17
72038;BME280;59900;50.788;12.904;2022-08-16T00:55:52;96841.84;;;18.69;78.78
72038;BME280;59900;50.788;12.904;2022-08-16T00:58:19;96841.03;;;18.69;78.64
72038;BME280;59900;50.788;12.904;2022-08-16T01:00:47;96848.75;;;18.70;77.87
72038;BME280;59900;50.788;12.904;2022-08-16T01:03:15;96847.16;;;18.69;77.89
72038;BME280;59900;50.788;12.904;2022-08-16T01:05:42;96851.16;;;18.72;76.47
72038;BME280;59900;50.788;12.904;2022-08-16T01:08:10;96850.34;;;18.76;76.35
72038;BME280;59900;50.788;12.904;2022-08-16T01:10:37;96850.34;;;18.76;76.03
72038;BME280;59900;50.788;12.904;2022-08-16T01:13:13;96846.13;;;18.75;76.01
72038;BME280;59900;50.788;12.904;2022-08-16T01:15:56;96856.75;;;18.75;76.37
72038;BME280;59900;50.788;12.904;2022-08-16T01:18:24;96851.69;;;18.74;76.07
72038;BME280;59900;50.788;12.904;2022-08-16T01:20:59;96851.16;;;18.67;77.39
72038;BME280;59900;50.788;12.904;2022-08-16T01:24:20;96849.28;;;18.57;78.12
72038;BME280;59900;50.788;12.904;2022-08-16T01:26:20;96856.69;;;18.50;78.63
72038;BME280;59900;50.788;12.904;2022-08-16T01:28:47;96849.78;;;18.49;77.06
72038;BME280;59900;50.788;12.904;2022-08-16T01:31:13;96846.59;;;18.52;76.68
72038;BME280;59900;50.788;12.904;2022-08-16T01:33:39;96847.13;;;18.54;76.26
72038;BME280;59900;50.788;12.904;2022-08-16T01:36:07;96847.13;;;18.59;74.75
72038;BME280;59900;50.788;12.904;2022-08-16T01:38:37;96854.88;;;18.66;74.28
72038;BME280;59900;50.788;12.904;2022-08-16T01:41:09;96857.00;;;18.69;73.87
72038;BME280;59900;50.788;12.904;2022-08-16T01:43:37;96847.97;;;18.70;74.52
72038;BME280;59900;50.788;12.904;2022-08-16T01:46:08;96846.66;;;18.72;74.12
72038;BME280;59900;50.788;12.904;2022-08-16T01:48:34;96844.78;;;18.73;73.52
72038;BME280;59900;50.788;12.904;2022-08-16T01:51:01;96854.09;;;18.75;73.24
72038;BME280;59900;50.788;12.904;2022-08-16T01:53:27;96849.03;;;18.74;73.30
72038;BME280;59900;50.788;12.904;2022-08-16T01:55:53;96857.28;;;18.72;73.56
72038;BME280;59900;50.788;12.904;2022-08-16T01:58:20;96854.88;;;18.71;73.33
72038;BME280;59900;50.788;12.904;2022-08-16T02:00:46;96850.06;;;18.68;73.34
72038;BME280;59900;50.788;12.904;2022-08-16T02:03:12;96840.50;;;18.67;73.34
72038;BME280;59900;50.788;12.904;2022-08-16T02:05:38;96844.22;;;18.66;73.35
72038;BME280;59900;50.788;12.904;2022-08-16T02:08:05;96838.63;;;18.67;73.08
72038;BME280;59900;50.788;12.904;2022-08-16T02:10:31;96836.53;;;18.69;73.30
72038;BME280;59900;50.788;12.904;2022-08-16T02:12:56;96849.84;;;18.69;73.80
72038;BME280;59900;50.788;12.904;2022-08-16T02:15:23;96853.53;;;18.68;73.24
72038;BME280;59900;50.788;12.904;2022-08-16T02:17:49;96848.75;;;18.65;73.65
72038;BME280;59900;50.788;12.904;2022-08-16T02:20:15;96848.22;;;18.63;73.67
72038;BME280;59900;50.788;12.904;2022-08-16T02:22:41;96850.59;;;18.55;73.63
72038;BME280;59900;50.788;12.904;2022-08-16T02:25:11;96851.88;;;18.47;73.77
72038;BME280;59900;50.788;12.904;2022-08-16T02:27:41;96860.13;;;18.45;73.39
72038;BME280;59900;50.788;12.904;2022-08-16T02:30:11;96863.09;;;18.49;73.61
72038;BME280;59900;50.788;12.904;2022-08-16T02:32:39;96854.03;;;18.50;72.74
72038;BME280;59900;50.788;12.904;2022-08-16T02:35:05;96855.34;;;18.47;72.13
72038;BME280;59900;50.788;12.904;2022-08-16T02:37:31;96850.53;;;18.44;71.54
72038;BME280;59900;50.788;12.904;2022-08-16T02:39:56;96860.13;;;18.45;72.38
72038;BME280;59900;50.788;12.904;2022-08-16T02:42:21;96861.44;;;18.43;71.52
72038;BME280;59900;50.788;12.904;2022-08-16T02:44:47;96858.78;;;18.43;71.88
72038;BME280;59900;50.788;12.904;2022-08-16T02:47:13;96859.56;;;18.43;72.31
72038;BME280;59900;50.788;12.904;2022-08-16T02:49:38;96865.16;;;18.42;71.90
72038;BME280;59900;50.788;12.904;2022-08-16T02:52:03;96855.56;;;18.36;71.64
72038;BME280;59900;50.788;12.904;2022-08-16T02:54:29;96861.94;;;18.35;71.47
72038;BME280;59900;50.788;12.904;2022-08-16T02:56:54;96856.09;;;18.33;71.08
72038;BME280;59900;50.788;12.904;2022-08-16T02:59:20;96858.22;;;18.31;71.04
72038;BME280;59900;50.788;12.904;2022-08-16T03:01:45;96862.47;;;18.32;71.04
72038;BME280;59900;50.788;12.904;2022-08-16T03:04:11;96860.34;;;18.34;70.82
72038;BME280;59900;50.788;12.904;2022-08-16T03:06:36;96861.41;;;18.38;70.65
72038;BME280;59900;50.788;12.904;2022-08-16T03:09:02;96852.13;;;18.40;70.13
72038;BME280;59900;50.788;12.904;2022-08-16T03:11:29;96860.38;;;18.44;69.51
72038;BME280;59900;50.788;12.904;2022-08-16T03:13:55;96860.13;;;18.45;69.99
72038;BME280;59900;50.788;12.904;2022-08-16T03:16:22;96866.25;;;18.46;69.36
72038;BME280;59900;50.788;12.904;2022-08-16T03:18:47;96868.63;;;18.42;70.92
72038;BME280;59900;50.788;12.904;2022-08-16T03:21:13;96873.13;;;18.37;70.97
72038;BME280;59900;50.788;12.904;2022-08-16T03:23:38;96877.88;;;18.30;72.30
72038;BME280;59900;50.788;12.904;2022-08-16T03:26:04;96876.25;;;18.24;72.14
72038;BME280;59900;50.788;12.904;2022-08-16T03:28:29;96876.78;;;18.21;71.26
72038;BME280;59900;50.788;12.904;2022-08-16T03:30:55;96882.91;;;18.21;71.15
72038;BME280;59900;50.788;12.904;2022-08-16T03:33:20;96878.13;;;18.23;70.35
72038;BME280;59900;50.788;12.904;2022-08-16T03:35:45;96872.56;;;18.25;70.57
72038;BME280;59900;50.788;12.904;2022-08-16T03:38:12;96883.72;;;18.27;70.22
72038;BME280;59900;50.788;12.904;2022-08-16T03:40:40;96873.06;;;18.22;70.02
72038;BME280;59900;50.788;12.904;2022-08-16T03:43:08;96876.53;;;18.22;70.41
72038;BME280;59900;50.788;12.904;2022-08-16T03:45:35;96875.75;;;18.22;70.21
72038;BME280;59900;50.788;12.904;2022-08-16T03:48:01;96873.06;;;18.22;70.46
72038;BME280;59900;50.788;12.904;2022-08-16T03:50:30;96887.19;;;18.22;70.40
72038;BME280;59900;50.788;12.904;2022-08-16T03:52:56;96889.03;;;18.22;70.50
72038;BME280;59900;50.788;12.904;2022-08-16T03:55:21;96894.88;;;18.19;69.97
72038;BME280;59900;50.788;12.904;2022-08-16T03:57:46;96894.59;;;18.15;70.38
72038;BME280;59900;50.788;12.904;2022-08-16T04:00:17;96906.28;;;18.14;70.63
72038;BME280;59900;50.788;12.904;2022-08-16T04:02:43;96899.09;;;18.10;71.04
72038;BME280;59900;50.788;12.904;2022-08-16T04:05:11;96904.38;;;18.05;71.39
72038;BME280;59900;50.788;12.904;2022-08-16T04:07:36;96904.91;;;18.02;70.83
72038;BME280;59900;50.788;12.904;2022-08-16T04:10:04;96904.09;;;18.01;70.56
72038;BME280;59900;50.788;12.904;2022-08-16T04:12:29;96903.56;;;18.04;70.62
72038;BME280;59900;50.788;12.904;2022-08-16T04:14:55;96904.13;;;18.11;70.27
72038;BME280;59900;50.788;12.904;2022-08-16T04:17:20;96904.16;;;18.16;70.54
72038;BME280;59900;50.788;12.904;2022-08-16T04:19:45;96906.03;;;18.21;70.56
72038;BME280;59900;50.788;12.904;2022-08-16T04:22:12;96902.34;;;18.22;71.28
72038;BME280;59900;50.788;12.904;2022-08-16T04:24:38;96896.22;;;18.21;71.74
72038;BME280;59900;50.788;12.904;2022-08-16T04:27:03;96897.53;;;18.19;71.94
72038;BME280;59900;50.788;12.904;2022-08-16T04:29:28;96907.13;;;18.20;71.22
72038;BME280;59900;50.788;12.904;2022-08-16T04:31:54;96905.22;;;18.20;70.19
72038;BME280;59900;50.788;12.904;2022-08-16T04:34:20;96905.22;;;18.20;69.86
72038;BME280;59900;50.788;12.904;2022-08-16T04:36:46;96903.38;;;18.21;70.30
72038;BME280;59900;50.788;12.904;2022-08-16T04:39:11;96913.50;;;18.24;69.73
72038;BME280;59900;50.788;12.904;2022-08-16T04:41:37;96906.06;;;18.26;69.98
72038;BME280;59900;50.788;12.904;2022-08-16T04:44:02;96915.13;;;18.30;69.35
72038;BME280;59900;50.788;12.904;2022-08-16T04:46:27;96911.16;;;18.32;69.93
72038;BME280;59900;50.788;12.904;2022-08-16T04:48:53;96911.94;;;18.33;69.32
72038;BME280;59900;50.788;12.904;2022-08-16T04:51:18;96923.13;;;18.35;69.58
72038;BME280;59900;50.788;12.904;2022-08-16T04:53:44;96925.25;;;18.38;69.68
72038;BME280;59900;50.788;12.904;2022-08-16T04:56:09;96934.34;;;18.42;69.66
72038;BME280;59900;50.788;12.904;2022-08-16T04:58:34;96929.81;;;18.42;69.25
72038;BME280;59900;50.788;12.904;2022-08-16T05:01:00;96929.53;;;18.44;69.95
72038;BME280;59900;50.788;12.904;2022-08-16T05:03:26;96929.53;;;18.44;69.29
72038;BME280;59900;50.788;12.904;2022-08-16T05:05:51;96940.47;;;18.42;69.55
72038;BME280;59900;50.788;12.904;2022-08-16T05:08:16;96942.31;;;18.42;70.29
72038;BME280;59900;50.788;12.904;2022-08-16T05:10:41;96951.34;;;18.36;69.94
72038;BME280;59900;50.788;12.904;2022-08-16T05:13:07;96947.84;;;18.30;69.94
72038;BME280;59900;50.788;12.904;2022-08-16T05:15:34;96949.69;;;18.25;70.57
72038;BME280;59900;50.788;12.904;2022-08-16T05:18:00;96948.88;;;18.24;69.85
72038;BME280;59900;50.788;12.904;2022-08-16T05:20:26;96948.88;;;18.24;70.45
72038;BME280;59900;50.788;12.904;2022-08-16T05:22:52;96947.84;;;18.30;71.00
72038;BME280;59900;50.788;12.904;2022-08-16T05:25:18;96950.00;;;18.33;70.78
72038;BME280;59900;50.788;12.904;2022-08-16T05:27:44;96942.84;;;18.39;70.32
72038;BME280;59900;50.788;12.904;2022-08-16T05:30:11;96950.81;;;18.44;70.55
72038;BME280;59900;50.788;12.904;2022-08-16T05:32:40;96953.56;;;18.49;70.51
72038;BME280;59900;50.788;12.904;2022-08-16T05:35:07;96951.16;;;18.53;70.63
72038;BME280;59900;50.788;12.904;2022-08-16T05:37:34;96949.31;;;18.58;69.95
72038;BME280;59900;50.788;12.904;2022-08-16T05:40:00;96953.06;;;18.62;69.68
72038;BME280;59900;50.788;12.904;2022-08-16T05:42:25;96955.50;;;18.69;69.35
72038;BME280;59900;50.788;12.904;2022-08-16T05:44:51;96950.19;;;18.74;69.35
72038;BME280;59900;50.788;12.904;2022-08-16T05:47:16;96953.13;;;18.77;69.80
72038;BME280;59900;50.788;12.904;2022-08-16T05:49:41;96945.69;;;18.84;69.27
72038;BME280;59900;50.788;12.904;2022-08-16T05:52:08;96956.88;;;18.91;69.28
72038;BME280;59900;50.788;12.904;2022-08-16T05:54:34;96947.03;;;18.97;69.29
72038;BME280;59900;50.788;12.904;2022-08-16T05:56:59;96948.38;;;18.99;68.94
72038;BME280;59900;50.788;12.904;2022-08-16T05:59:24;96948.41;;;19.05;69.21
72038;BME280;59900;50.788;12.904;2022-08-16T06:01:50;96947.59;;;19.09;69.43
72038;BME280;59900;50.788;12.904;2022-08-16T06:04:16;96948.69;;;19.13;69.34
72038;BME280;59900;50.788;12.904;2022-08-16T06:06:42;96949.22;;;19.20;69.40
72038;BME280;59900;50.788;12.904;2022-08-16T06:09:09;96949.75;;;19.27;69.51
72038;BME280;59900;50.788;12.904;2022-08-16T06:11:35;96955.88;;;19.33;69.23
72038;BME280;59900;50.788;12.904;2022-08-16T06:14:00;96956.69;;;19.38;69.13
72038;BME280;59900;50.788;12.904;2022-08-16T06:16:25;96950.34;;;19.44;68.64
72038;BME280;59900;50.788;12.904;2022-08-16T06:18:51;96947.41;;;19.51;68.36
72038;BME280;59900;50.788;12.904;2022-08-16T06:21:16;96950.88;;;19.56;68.36
72038;BME280;59900;50.788;12.904;2022-08-16T06:23:41;96957.28;;;19.61;67.56
72038;BME280;59900;50.788;12.904;2022-08-16T06:26:07;96959.94;;;19.66;68.28
72038;BME280;59900;50.788;12.904;2022-08-16T06:28:33;96962.34;;;19.72;67.99
72038;BME280;59900;50.788;12.904;2022-08-16T06:30:59;96965.25;;;19.76;67.81
72038;BME280;59900;50.788;12.904;2022-08-16T06:33:24;96970.59;;;19.81;68.34
72038;BME280;59900;50.788;12.904;2022-08-16T06:35:51;96973.53;;;19.84;67.75
72038;BME280;59900;50.788;12.904;2022-08-16T06:38:17;96970.84;;;19.89;67.31
72038;BME280;59900;50.788;12.904;2022-08-16T06:40:42;96977.78;;;19.95;67.93
72038;BME280;59900;50.788;12.904;2022-08-16T06:43:07;96999.91;;;19.96;66.31
72038;BME280;59900;50.788;12.904;2022-08-16T06:45:32;96998.59;;;19.98;67.12
72038;BME280;59900;50.788;12.904;2022-08-16T06:48:05;96991.91;;;20.01;66.67
72038;BME280;59900;50.788;12.904;2022-08-16T06:50:31;96990.56;;;20.03;66.75
72038;BME280;59900;50.788;12.904;2022-08-16T06:52:57;96990.03;;;20.06;67.09
72038;BME280;59900;50.788;12.904;2022-08-16T06:55:23;96996.44;;;20.10;66.93
72038;BME280;59900;50.788;12.904;2022-08-16T06:57:50;96995.63;;;20.15;67.10
72038;BME280;59900;50.788;12.904;2022-08-16T07:00:16;97001.22;;;20.19;66.61
72038;BME280;59900;50.788;12.904;2022-08-16T07:02:42;97003.06;;;20.23;67.38
72038;BME280;59900;50.788;12.904;2022-08-16T07:05:10;97002.28;;;20.28;67.11
72038;BME280;59900;50.788;12.904;2022-08-16T07:07:36;97004.44;;;20.31;66.78
72038;BME280;59900;50.788;12.904;2022-08-16T07:10:03;97009.22;;;20.34;67.20
72038;BME280;59900;50.788;12.904;2022-08-16T07:12:29;97011.34;;;20.37;67.13
72038;BME280;59900;50.788;12.904;2022-08-16T07:14:54;97018.81;;;20.40;66.92
72038;BME280;59900;50.788;12.904;2022-08-16T07:17:21;97017.19;;;20.44;66.72
72038;BME280;59900;50.788;12.904;2022-08-16T07:19:47;97020.94;;;20.48;66.79
72038;BME280;59900;50.788;12.904;2022-08-16T07:22:14;97023.31;;;20.54;66.79
72038;BME280;59900;50.788;12.904;2022-08-16T07:24:39;97019.81;;;20.59;66.81
72038;BME280;59900;50.788;12.904;2022-08-16T07:27:04;97024.09;;;20.60;65.84
72038;BME280;59900;50.788;12.904;2022-08-16T07:29:30;97026.22;;;20.63;65.58
72038;BME280;59900;50.788;12.904;2022-08-16T07:31:55;97031.53;;;20.68;66.12
72038;BME280;59900;50.788;12.904;2022-08-16T07:34:21;97033.13;;;20.74;65.36
72038;BME280;59900;50.788;12.904;2022-08-16T07:36:46;97032.56;;;20.82;66.25
72038;BME280;59900;50.788;12.904;2022-08-16T07:39:13;97027.72;;;20.89;65.30
72038;BME280;59900;50.788;12.904;2022-08-16T07:41:38;97033.03;;;20.94;65.50
72038;BME280;59900;50.788;12.904;2022-08-16T07:44:04;97027.66;;;20.99;64.75
72038;BME280;59900;50.788;12.904;2022-08-16T07:46:30;97030.06;;;21.06;64.92
72038;BME280;59900;50.788;12.904;2022-08-16T07:48:55;97036.19;;;21.11;64.39
72038;BME280;59900;50.788;12.904;2022-08-16T07:51:20;97039.69;;;21.12;64.04
72038;BME280;59900;50.788;12.904;2022-08-16T07:53:46;97023.94;;;21.10;63.37
72038;BME280;59900;50.788;12.904;2022-08-16T07:56:19;97029.78;;;21.12;63.03
72038;BME280;59900;50.788;12.904;2022-08-16T07:58:45;97041.50;;;21.16;63.72
72038;BME280;59900;50.788;12.904;2022-08-16T08:01:11;97039.09;;;21.20;62.97
72038;BME280;59900;50.788;12.904;2022-08-16T08:03:39;97035.88;;;21.23;62.97
72038;BME280;59900;50.788;12.904;2022-08-16T08:06:04;97038.00;;;21.26;62.81
72038;BME280;59900;50.788;12.904;2022-08-16T08:08:30;97046.81;;;21.27;63.31
72038;BME280;59900;50.788;12.904;2022-08-16T08:10:55;97041.44;;;21.32;63.62
72038;BME280;59900;50.788;12.904;2022-08-16T08:13:21;97047.53;;;21.37;63.78
72038;BME280;59900;50.788;12.904;2022-08-16T08:15:46;97040.03;;;21.44;63.73
72038;BME280;59900;50.788;12.904;2022-08-16T08:18:13;97044.53;;;21.49;62.59
72038;BME280;59900;50.788;12.904;2022-08-16T08:20:38;97044.53;;;21.49;62.47
72038;BME280;59900;50.788;12.904;2022-08-16T08:23:10;97050.91;;;21.58;62.46
72038;BME280;59900;50.788;12.904;2022-08-16T08:25:38;97055.69;;;21.66;62.67
72038;BME280;59900;50.788;12.904;2022-08-16T08:28:04;97050.28;;;21.71;62.67
72038;BME280;59900;50.788;12.904;2022-08-16T08:30:29;97053.22;;;21.74;62.16
72038;BME280;59900;50.788;12.904;2022-08-16T08:32:54;97051.28;;;21.80;62.41
72038;BME280;59900;50.788;12.904;2022-08-16T08:35:20;97046.50;;;21.77;61.74
72038;BME280;59900;50.788;12.904;2022-08-16T08:37:45;97044.56;;;21.83;62.57
72038;BME280;59900;50.788;12.904;2022-08-16T08:40:11;97058.19;;;21.91;62.07
72038;BME280;59900;50.788;12.904;2022-08-16T08:42:37;97051.75;;;21.92;61.25
72038;BME280;59900;50.788;12.904;2022-08-16T08:45:05;97054.44;;;21.92;60.58
72038;BME280;59900;50.788;12.904;2022-08-16T08:47:31;97045.06;;;21.95;60.07
72038;BME280;59900;50.788;12.904;2022-08-16T08:49:56;97042.06;;;22.01;60.22
72038;BME280;59900;50.788;12.904;2022-08-16T08:52:23;97050.84;;;22.07;61.38
72038;BME280;59900;50.788;12.904;2022-08-16T08:54:48;97053.22;;;22.08;60.96
72038;BME280;59900;50.788;12.904;2022-08-16T08:57:13;97050.28;;;22.10;60.16
72038;BME280;59900;50.788;12.904;2022-08-16T08:59:39;97063.31;;;22.16;59.61
72038;BME280;59900;50.788;12.904;2022-08-16T09:02:04;97066.00;;;22.16;59.03
72038;BME280;59900;50.788;12.904;2022-08-16T09:04:32;97060.63;;;22.21;59.76
72038;BME280;59900;50.788;12.904;2022-08-16T09:06:58;97065.41;;;22.24;59.34
72038;BME280;59900;50.788;12.904;2022-08-16T09:09:23;97060.31;;;22.23;59.24
72038;BME280;59900;50.788;12.904;2022-08-16T09:11:49;97064.31;;;22.25;59.09
72038;BME280;59900;50.788;12.904;2022-08-16T09:14:15;97063.47;;;22.30;60.07
72038;BME280;59900;50.788;12.904;2022-08-16T09:16:41;97066.41;;;22.33;59.88
72038;BME280;59900;50.788;12.904;2022-08-16T09:19:06;97061.91;;;22.53;59.51
72038;BME280;59900;50.788;12.904;2022-08-16T09:21:31;97062.66;;;22.58;58.14
72038;BME280;59900;50.788;12.904;2022-08-16T09:23:57;97061.84;;;22.58;57.88
72038;BME280;59900;50.788;12.904;2022-08-16T09:26:22;97055.94;;;22.61;57.94
72038;BME280;59900;50.788;12.904;2022-08-16T09:28:49;97054.31;;;22.65;58.41
72038;BME280;59900;50.788;12.904;2022-08-16T09:31:15;97053.75;;;22.68;57.99
72038;BME280;59900;50.788;12.904;2022-08-16T09:33:41;97060.66;;;22.74;58.29
72038;BME280;59900;50.788;12.904;2022-08-16T09:36:08;97059.97;;;22.87;59.17
72038;BME280;59900;50.788;12.904;2022-08-16T09:38:34;97056.84;;;23.04;57.77
72038;BME280;59900;50.788;12.904;2022-08-16T09:41:02;97044.88;;;23.15;56.87
72038;BME280;59900;50.788;12.904;2022-08-16T09:43:28;97050.13;;;23.25;56.55
72038;BME280;59900;50.788;12.904;2022-08-16T09:45:53;97049.31;;;23.24;56.43
72038;BME280;59900;50.788;12.904;2022-08-16T09:48:19;97042.81;;;23.30;56.28
72038;BME280;59900;50.788;12.904;2022-08-16T09:50:44;97042.59;;;23.27;56.43
72038;BME280;59900;50.788;12.904;2022-08-16T09:53:13;97039.56;;;23.33;56.08
72038;BME280;59900;50.788;12.904;2022-08-16T09:55:39;97040.22;;;23.44;55.21
72038;BME280;59900;50.788;12.904;2022-08-16T09:58:05;97040.72;;;23.46;55.55
72038;BME280;59900;50.788;12.904;2022-08-16T10:00:30;97042.25;;;23.52;54.84
72038;BME280;59900;50.788;12.904;2022-08-16T10:02:56;97039.22;;;23.59;53.67
72038;BME280;59900;50.788;12.904;2022-08-16T10:05:22;97033.75;;;23.64;54.65
72038;BME280;59900;50.788;12.904;2022-08-16T10:07:47;97034.47;;;23.69;53.80
72038;BME280;59900;50.788;12.904;2022-08-16T10:10:18;97037.38;;;23.73;55.16
72038;BME280;59900;50.788;12.904;2022-08-16T10:12:45;97040.28;;;23.76;53.52
72038;BME280;59900;50.788;12.904;2022-08-16T10:15:29;97043.19;;;23.80;53.64
72038;BME280;59900;50.788;12.904;2022-08-16T10:17:54;97039.41;;;23.81;52.47
72038;BME280;59900;50.788;12.904;2022-08-16T10:20:21;97042.75;;;23.91;52.87
72038;BME280;59900;50.788;12.904;2022-08-16T10:22:50;97038.22;;;24.06;52.41
72038;BME280;59900;50.788;12.904;2022-08-16T10:25:16;97025.63;;;24.20;52.23
72038;BME280;59900;50.788;12.904;2022-08-16T10:27:43;97031.53;;;24.22;51.52
72038;BME280;59900;50.788;12.904;2022-08-16T10:30:09;97030.31;;;24.28;51.40
72038;BME280;59900;50.788;12.904;2022-08-16T10:32:34;97034.41;;;24.25;50.40
72038;BME280;59900;50.788;12.904;2022-08-16T10:35:00;97032.13;;;24.32;52.19
72038;BME280;59900;50.788;12.904;2022-08-16T10:37:26;97031.25;;;24.37;50.95
72038;BME280;59900;50.788;12.904;2022-08-16T10:39:51;97033.06;;;24.41;51.03
72038;BME280;59900;50.788;12.904;2022-08-16T10:42:16;97026.72;;;24.51;51.03
72038;BME280;59900;50.788;12.904;2022-08-16T10:44:42;97027.00;;;24.63;50.25
72038;BME280;59900;50.788;12.904;2022-08-16T10:47:08;97027.59;;;24.74;50.74
72038;BME280;59900;50.788;12.904;2022-08-16T10:49:34;97019.88;;;24.86;49.96
72038;BME280;59900;50.788;12.904;2022-08-16T10:52:00;97020.16;;;24.98;49.74
72038;BME280;59900;50.788;12.904;2022-08-16T10:54:25;97013.75;;;25.07;50.29
72038;BME280;59900;50.788;12.904;2022-08-16T10:56:51;97012.28;;;25.15;49.12
72038;BME280;59900;50.788;12.904;2022-08-16T10:59:19;97013.25;;;25.19;48.61
72038;BME280;59900;50.788;12.904;2022-08-16T11:01:44;97016.06;;;25.14;48.52
72038;BME280;59900;50.788;12.904;2022-08-16T11:04:10;97023.50;;;25.17;49.42
72038;BME280;59900;50.788;12.904;2022-08-16T11:06:35;97019.22;;;25.16;49.69
72038;BME280;59900;50.788;12.904;2022-08-16T11:09:00;97018.09;;;25.31;48.98
72038;BME280;59900;50.788;12.904;2022-08-16T11:11:25;97020.88;;;25.39;49.16
72038;BME280;59900;50.788;12.904;2022-08-16T11:13:51;97020.44;;;25.46;49.22
72038;BME280;59900;50.788;12.904;2022-08-16T11:16:18;97023.63;;;25.61;48.49
72038;BME280;59900;50.788;12.904;2022-08-16T11:18:44;97019.25;;;25.66;48.61
72038;BME280;59900;50.788;12.904;2022-08-16T11:21:10;97020.28;;;25.78;48.76
72038;BME280;59900;50.788;12.904;2022-08-16T11:23:36;97017.34;;;25.88;48.78
72038;BME280;59900;50.788;12.904;2022-08-16T11:26:01;97010.28;;;26.01;48.79
72038;BME280;59900;50.788;12.904;2022-08-16T11:28:26;97010.25;;;26.14;47.35
72038;BME280;59900;50.788;12.904;2022-08-16T11:30:52;97012.84;;;26.28;46.64
72038;BME280;59900;50.788;12.904;2022-08-16T11:33:17;97015.63;;;26.45;47.36
72038;BME280;59900;50.788;12.904;2022-08-16T11:35:43;97012.31;;;26.48;45.91
72038;BME280;59900;50.788;12.904;2022-08-16T11:38:13;97014.41;;;26.51;46.72
72038;BME280;59900;50.788;12.904;2022-08-16T11:40:59;97018.84;;;26.47;44.31
72038;BME280;59900;50.788;12.904;2022-08-16T11:43:32;97018.47;;;26.40;46.28
72038;BME280;59900;50.788;12.904;2022-08-16T11:46:00;97016.06;;;26.30;45.78
72038;BME280;59900;50.788;12.904;2022-08-16T11:48:30;97014.13;;;26.31;45.63
72038;BME280;59900;50.788;12.904;2022-08-16T11:50:57;97020.97;;;26.37;45.35
72038;BME280;59900;50.788;12.904;2022-08-16T11:53:23;97016.34;;;26.29;45.54
72038;BME280;59900;50.788;12.904;2022-08-16T11:55:49;97015.56;;;26.28;45.52
72038;BME280;59900;50.788;12.904;2022-08-16T11:58:16;97015.38;;;26.25;45.41
72038;BME280;59900;50.788;12.904;2022-08-16T12:00:43;97021.44;;;26.30;46.70
72038;BME280;59900;50.788;12.904;2022-08-16T12:03:09;97016.75;;;26.44;45.33
72038;BME280;59900;50.788;12.904;2022-08-16T12:05:36;97014.28;;;26.56;45.69
72038;BME280;59900;50.788;12.904;2022-08-16T12:08:03;97024.25;;;26.56;44.23
72038;BME280;59900;50.788;12.904;2022-08-16T12:10:32;97010.63;;;26.61;44.23
72038;BME280;59900;50.788;12.904;2022-08-16T12:12:57;97015.44;;;26.72;44.66
72038;BME280;59900;50.788;12.904;2022-08-16T12:15:22;97018.53;;;26.80;44.28
72038;BME280;59900;50.788;12.904;2022-08-16T12:17:51;97013.16;;;26.88;44.45
72038;BME280;59900;50.788;12.904;2022-08-16T12:20:22;97012.03;;;26.89;44.24
72038;BME280;59900;50.788;12.904;2022-08-16T12:22:50;97016.66;;;26.97;44.08
72038;BME280;59900;50.788;12.904;2022-08-16T12:25:18;97011.91;;;27.03;42.99
72038;BME280;59900;50.788;12.904;2022-08-16T12:27:44;97014.75;;;26.98;43.85
72038;BME280;59900;50.788;12.904;2022-08-16T12:30:15;97005.75;;;27.11;43.70
72038;BME280;59900;50.788;12.904;2022-08-16T12:32:41;97011.31;;;27.14;43.87
72038;BME280;59900;50.788;12.904;2022-08-16T12:35:09;97006.56;;;27.20;43.33
72038;BME280;59900;50.788;12.904;2022-08-16T12:37:37;97003.69;;;27.25;43.41
72038;BME280;59900;50.788;12.904;2022-08-16T12:40:05;97009.44;;;27.32;45.39
72038;BME280;59900;50.788;12.904;2022-08-16T12:42:31;97003.41;;;27.35;46.17
72038;BME280;59900;50.788;12.904;2022-08-16T12:44:59;97007.38;;;27.38;44.76
72038;BME280;59900;50.788;12.904;2022-08-16T12:47:24;97005.13;;;27.40;44.90
72038;BME280;59900;50.788;12.904;2022-08-16T12:50:08;97005.47;;;27.38;45.61